createdAt,value
2018-02-04T09:21:20.181Z,11.18
2018-02-04T09:23:48.227Z,13.00
2018-02-04T09:26:16.106Z,11.18
2018-02-04T09:28:43.969Z,11.25
2018-02-04T09:34:19.871Z,11.00
2018-02-04T09:58:00.844Z,11.43
2018-02-04T10:00:28.709Z,12.23
2018-02-04T10:02:56.682Z,11.55
2018-02-04T10:15:45.909Z,11.65
2018-02-04T10:18:13.755Z,12.80
2018-02-04T10:20:42.438Z,14.40
2018-02-04T10:23:18.408Z,13.57
2018-02-04T10:25:48.888Z,14.73
2018-02-04T10:28:17.031Z,12.82
2018-02-04T10:30:53.015Z,15.07
2018-02-04T10:33:22.875Z,14.50
2018-02-04T10:35:51.454Z,14.77
2018-02-04T10:44:20.955Z,16.90
2018-02-04T10:46:49.442Z,16.48
2018-02-04T10:49:17.482Z,14.98
2018-02-04T10:51:51.521Z,14.90
2018-02-04T10:54:30.827Z,14.70
2018-02-04T11:00:07.313Z,15.35
2018-02-04T11:02:48.365Z,16.08
2018-02-04T11:05:18.824Z,15.73
2018-02-04T11:07:46.983Z,15.98
2018-02-04T11:10:17.401Z,17.00
2018-02-04T11:15:47.344Z,16.62
2018-02-04T11:18:23.714Z,14.25
2018-02-04T11:23:59.495Z,15.30
2018-02-04T11:26:35.228Z,18.15
2018-02-04T11:29:22.171Z,15.98
2018-02-04T11:31:50.334Z,17.20
2018-02-04T11:34:19.337Z,16.75
2018-02-04T11:39:53.577Z,16.15
2018-02-04T11:42:42.903Z,15.40
2018-02-04T11:45:10.798Z,17.27
2018-02-04T11:47:38.653Z,16.60
2018-02-04T12:08:19.956Z,17.83
2018-02-04T12:22:49.579Z,13.35
2018-02-04T12:31:09.334Z,12.30
2018-02-04T12:33:37.387Z,11.70
2018-02-04T12:36:05.270Z,11.80
2018-02-04T12:41:27.069Z,11.07
2018-02-04T12:46:46.072Z,11.38
2018-02-04T12:49:19.650Z,12.05
2018-02-04T12:55:18.605Z,10.98
2018-02-04T12:57:59.338Z,13.57
2018-02-04T13:12:26.852Z,13.30
2018-02-04T13:23:26.356Z,12.00
2018-02-04T13:28:45.827Z,13.57
2018-02-04T13:34:14.828Z,12.93
2018-02-04T13:36:49.161Z,13.70
2018-02-04T13:39:19.229Z,14.15
2018-02-04T13:41:47.722Z,12.52
2018-02-04T13:44:15.609Z,13.62
2018-02-04T13:46:44.750Z,13.07
2018-02-04T13:49:28.067Z,12.85
2018-02-04T13:54:51.272Z,14.32
2018-02-04T13:57:19.202Z,14.40
2018-02-04T13:59:47.409Z,13.02
2018-02-04T14:02:15.425Z,13.50
2018-02-04T14:04:44.505Z,13.52
2018-02-04T14:07:12.486Z,12.85
2018-02-04T14:09:40.324Z,14.43
2018-02-04T14:12:09.710Z,13.57
2018-02-04T14:14:37.667Z,12.40
2018-02-04T14:20:25.572Z,12.57
2018-02-04T14:22:53.395Z,13.80
2018-02-04T14:25:21.273Z,13.50
2018-02-04T14:43:09.938Z,14.57
2018-02-04T14:45:45.135Z,14.82
2018-02-04T14:48:16.364Z,12.80
2018-02-04T14:50:44.607Z,14.30
2018-02-04T14:53:33.295Z,11.27
2018-02-04T15:01:58.543Z,12.77
2018-02-04T15:19:09.444Z,13.75
2018-02-04T15:21:48.929Z,12.55
2018-02-04T15:24:17.120Z,13.20
2018-02-04T15:29:55.422Z,14.55
2018-02-04T15:32:23.844Z,13.35
2018-02-04T15:34:52.010Z,13.52
2018-02-04T15:37:20.495Z,13.75
2018-02-04T15:39:49.268Z,13.35
2018-02-04T15:42:23.284Z,12.80
2018-02-04T15:44:53.479Z,14.02
2018-02-04T15:47:21.637Z,15.85
2018-02-04T15:49:49.788Z,13.55
2018-02-04T15:52:20.297Z,15.15
2018-02-04T15:57:43.843Z,15.82
2018-02-04T16:05:39.429Z,15.25
2018-02-04T16:11:07.275Z,15.80
2018-02-04T16:13:35.117Z,15.85
2018-02-04T16:16:03.097Z,17.80
2018-02-04T16:18:31.062Z,17.45
2018-02-04T16:27:19.885Z,18.10
2018-02-04T16:32:43.096Z,19.62
2018-02-04T16:35:11.213Z,18.42
2018-02-04T16:37:39.457Z,17.77
2018-02-04T16:40:07.397Z,18.65
2018-02-04T16:42:36.127Z,21.58
2018-02-04T16:45:04.092Z,18.90
2018-02-04T16:47:31.938Z,17.70
2018-02-04T16:49:59.781Z,19.65
2018-02-04T16:52:27.705Z,18.37
2018-02-04T16:54:55.556Z,20.88
2018-02-04T16:57:23.400Z,18.33
2018-02-04T16:59:53.339Z,19.10
2018-02-04T17:05:00.301Z,17.87
2018-02-04T17:13:21.397Z,16.92
2018-02-04T17:15:49.985Z,17.37
2018-02-04T17:18:20.317Z,16.75
2018-02-04T17:20:49.321Z,16.55
2018-02-04T17:23:28.853Z,15.70
2018-02-04T17:26:08.046Z,18.40
2018-02-04T17:28:41.408Z,17.48
2018-02-04T17:34:19.200Z,17.05
2018-02-04T17:36:55.425Z,16.60
2018-02-04T17:42:28.358Z,15.27
2018-02-04T17:51:08.600Z,15.98
2018-02-04T17:53:36.460Z,19.02
2018-02-04T17:56:04.288Z,16.98
2018-02-04T17:58:32.118Z,17.65
2018-02-04T18:01:00.041Z,17.20
2018-02-04T18:03:27.875Z,16.95
2018-02-04T18:05:55.705Z,19.55
2018-02-04T18:08:24.266Z,17.37
2018-02-04T18:10:53.441Z,18.77
2018-02-04T18:13:22.533Z,18.35
2018-02-04T18:15:50.397Z,17.42
2018-02-04T18:18:18.263Z,17.52
2018-02-04T18:20:46.080Z,17.12
2018-02-04T18:23:13.912Z,17.02
2018-02-04T18:25:41.748Z,16.67
2018-02-04T18:28:09.648Z,18.10
2018-02-04T18:30:37.552Z,16.50
2018-02-04T18:33:08.080Z,17.67
2018-02-04T18:35:36.001Z,17.50
2018-02-04T18:38:04.122Z,17.00
2018-02-04T18:40:34.137Z,19.98
2018-02-04T18:43:03.598Z,16.00
2018-02-04T18:45:31.590Z,20.85
2018-02-04T18:47:59.837Z,18.15
2018-02-04T18:50:28.184Z,18.48
2018-02-04T18:52:56.141Z,17.60
2018-02-04T18:55:24.017Z,15.60
2018-02-04T18:57:51.925Z,16.95
2018-02-04T19:00:29.458Z,15.20
2018-02-04T19:02:57.519Z,16.87
2018-02-04T19:05:25.425Z,15.40
2018-02-04T19:08:00.873Z,14.57
2018-02-04T19:10:28.917Z,15.82
2018-02-04T19:15:57.954Z,14.82
2018-02-04T19:18:25.797Z,14.13
2018-02-04T19:23:35.262Z,14.95
2018-02-04T19:26:03.114Z,17.48
2018-02-04T19:31:35.952Z,15.27
2018-02-04T19:34:04.235Z,14.93
2018-02-04T19:36:49.009Z,14.15
2018-02-04T19:45:16.838Z,13.48
2018-02-04T19:47:57.442Z,15.10
2018-02-04T19:50:25.361Z,14.32
2018-02-04T19:52:53.296Z,12.80
2018-02-04T19:55:21.123Z,14.48
2018-02-04T19:57:48.959Z,13.50
2018-02-04T20:00:16.786Z,13.30
2018-02-04T20:02:44.623Z,14.27
2018-02-04T20:05:12.484Z,13.18
2018-02-04T20:07:40.332Z,13.93
2018-02-04T20:10:08.168Z,14.40
2018-02-04T20:12:36.039Z,15.70
2018-02-04T20:15:03.856Z,14.57
2018-02-04T20:17:31.700Z,14.65
2018-02-04T20:19:59.525Z,14.25
2018-02-04T20:22:27.445Z,14.23
2018-02-04T20:24:55.336Z,15.32
2018-02-04T20:27:23.181Z,14.73
2018-02-04T20:29:51.353Z,13.20
2018-02-04T20:32:25.311Z,13.90
2018-02-04T20:34:53.119Z,15.40
2018-02-04T20:37:20.964Z,14.95
2018-02-04T20:39:48.825Z,15.27
2018-02-04T20:42:18.082Z,16.12
2018-02-04T20:44:55.326Z,16.77
2018-02-04T20:50:17.949Z,15.50
2018-02-04T20:52:46.916Z,14.35
2018-02-04T20:55:15.618Z,15.05
2018-02-04T20:57:53.605Z,15.48
2018-02-04T21:00:22.283Z,15.27
2018-02-04T21:02:50.306Z,13.43
2018-02-04T21:05:19.039Z,15.30
2018-02-04T21:07:46.917Z,14.82
2018-02-04T21:10:15.724Z,14.73
2018-02-04T21:12:43.765Z,14.73
2018-02-04T21:15:15.297Z,15.25
2018-02-04T21:17:45.244Z,13.50
2018-02-04T21:20:18.719Z,14.80
2018-02-04T21:22:46.859Z,14.20
2018-02-04T21:25:20.049Z,13.05
2018-02-04T21:27:54.345Z,13.98
2018-02-04T21:30:23.176Z,12.80
2018-02-04T21:32:57.983Z,13.88
2018-02-04T21:35:35.238Z,13.48
2018-02-04T21:41:13.502Z,14.63
2018-02-04T21:43:41.348Z,12.88
2018-02-04T21:46:09.160Z,13.32
2018-02-04T21:48:37.006Z,13.07
2018-02-04T21:51:05.067Z,12.57
2018-02-04T21:53:33.035Z,12.27
2018-02-04T21:56:00.840Z,12.45
2018-02-04T21:58:28.668Z,12.23
2018-02-04T22:00:56.467Z,13.45
2018-02-04T22:03:24.297Z,12.30
2018-02-04T22:05:52.131Z,12.25
2018-02-04T22:08:25.919Z,13.07
2018-02-04T22:10:53.752Z,12.70
2018-02-04T22:13:21.600Z,12.48
2018-02-04T22:15:49.431Z,11.93
2018-02-04T22:18:17.277Z,11.70
2018-02-04T22:20:45.108Z,10.95
2018-02-04T22:23:13.612Z,11.00
2018-02-04T22:25:50.984Z,11.00
2018-02-04T22:28:18.952Z,12.32
2018-02-04T22:33:27.218Z,11.00
2018-02-04T22:36:02.197Z,10.85
2018-02-04T22:38:31.737Z,11.88
2018-02-04T22:40:59.908Z,10.32
2018-02-04T22:43:27.740Z,9.15
2018-02-04T22:45:55.585Z,10.65
2018-02-04T22:48:23.405Z,9.77
2018-02-04T22:50:51.236Z,8.48
2018-02-04T22:53:19.080Z,8.93
2018-02-04T22:58:47.519Z,7.87
2018-02-04T23:01:18.788Z,9.02
2018-02-04T23:03:46.613Z,8.35
2018-02-04T23:06:15.909Z,9.25
2018-02-04T23:08:47.393Z,8.52
2018-02-04T23:11:20.182Z,7.62
2018-02-04T23:16:53.005Z,9.00
2018-02-04T23:22:20.016Z,8.85
2018-02-04T23:24:48.074Z,9.07
2018-02-04T23:27:15.943Z,9.55
2018-02-04T23:29:43.767Z,8.13
2018-02-04T23:32:11.617Z,8.55
2018-02-04T23:34:41.208Z,10.68
2018-02-04T23:37:19.304Z,7.95
2018-02-04T23:39:48.288Z,7.65
2018-02-04T23:45:19.769Z,8.63
2018-02-04T23:47:47.611Z,8.30
2018-02-04T23:50:17.304Z,7.82
2018-02-04T23:52:45.625Z,7.15
2018-02-04T23:55:13.717Z,7.72
2018-02-04T23:57:43.636Z,8.88
